Terminal Aerodrome Forecast
Issued by NWS

Home | Current Version | Previous Version | Text Only | Print | Product List | Glossary On
Versions: 1 2 3 4 5 6 7 8 9 10 11 12 13 14 15 16 17 18 19 20 21 22 23 24 25 26 27 28 29 30 31 32 33 34 35 36
000
FTUS45 KBYZ 302320
TAFLVM
TAF
KLVM 302320Z 0100/0124 26015KT P6SM VCSH SCT025 BKN070
     FM010400 27012KT P6SM BKN070
     FM011400 29015KT P6SM BKN100
     FM011800 26015G25KT P6SM SCT150=

USA.gov is the U.S. government's official web portal to all federal, state and local government web resources and services.